Time;durP1;ratioP1;P1;durP2;ratioP2;P2;SDS_P1;SDS_P2;PMS_P1;PMS_P2;Temp;Humidity;BMP_temperature;BMP_pressure;BME280_temperature;BME280_humidity;BME280_pressure;Samples;Min_cycle;Max_cycle;Signal;HPM_P1;HPM_P2
2023/07/29 00:01:08;;;;;;;3.05;1.48;;;17.60;85.50;;;;;;5013925;28;20436;-73
2023/07/29 00:03:33;;;;;;;1.73;1.50;;;17.60;85.50;;;;;;5013504;28;20077;-74
2023/07/29 00:05:59;;;;;;;1.83;1.27;;;17.60;85.40;;;;;;5013395;28;20422;-74
2023/07/29 00:08:24;;;;;;;2.75;1.33;;;17.60;85.20;;;;;;5014605;28;20025;-74
2023/07/29 00:10:50;;;;;;;1.58;1.10;;;17.60;85.20;;;;;;4996149;28;20038;-74
2023/07/29 00:13:15;;;;;;;1.83;1.40;;;17.60;85.20;;;;;;5017706;28;20083;-73
2023/07/29 00:15:41;;;;;;;2.92;1.20;;;17.70;85.20;;;;;;5013416;28;20044;-74
2023/07/29 00:18:06;;;;;;;2.20;1.42;;;17.60;85.10;;;;;;5013503;28;20045;-74
2023/07/29 00:20:32;;;;;;;2.38;1.60;;;17.70;85.20;;;;;;5013528;28;20026;-73
2023/07/29 00:22:58;;;;;;;3.38;1.35;;;17.60;85.00;;;;;;5013474;28;20026;-74
2023/07/29 00:25:24;;;;;;;1.80;1.52;;;17.60;85.00;;;;;;5013521;28;20028;-73
2023/07/29 00:27:49;;;;;;;1.63;1.35;;;17.70;85.00;;;;;;5013397;28;20030;-73
2023/07/29 00:30:15;;;;;;;2.97;1.38;;;17.60;84.80;;;;;;5013362;28;20041;-74
2023/07/29 00:32:41;;;;;;;2.88;2.30;;;17.60;84.60;;;;;;5013233;28;20018;-73
2023/07/29 00:35:07;;;;;;;2.65;2.00;;;17.70;84.70;;;;;;5013137;28;20036;-74
2023/07/29 00:37:32;;;;;;;3.70;1.60;;;17.70;84.60;;;;;;5013153;28;20041;-74
2023/07/29 00:39:58;;;;;;;3.20;1.70;;;17.70;84.50;;;;;;5014907;28;20025;-73
2023/07/29 00:42:24;;;;;;;3.20;1.65;;;17.70;84.40;;;;;;5013128;28;20036;-74
2023/07/29 00:44:50;;;;;;;2.08;1.50;;;17.70;84.30;;;;;;5013017;28;20050;-73
2023/07/29 00:47:16;;;;;;;1.40;1.25;;;17.80;84.20;;;;;;4995429;28;20086;-74
2023/07/29 00:49:44;;;;;;;2.25;1.20;;;17.70;84.10;;;;;;5014288;28;20374;-75
2023/07/29 00:52:12;;;;;;;1.75;1.23;;;17.80;84.10;;;;;;5016932;28;20494;-73
2023/07/29 00:54:38;;;;;;;1.77;1.45;;;17.80;83.90;;;;;;5017094;28;20108;-73
2023/07/29 00:57:05;;;;;;;4.00;1.45;;;17.70;84.10;;;;;;5016743;28;20057;-73
2023/07/29 00:59:31;;;;;;;3.42;1.75;;;17.70;84.10;;;;;;5016868;28;20026;-73
2023/07/29 01:01:57;;;;;;;2.33;1.95;;;17.60;84.30;;;;;;5016808;28;20569;-73
2023/07/29 01:04:23;;;;;;;2.55;1.67;;;17.60;84.30;;;;;;5016662;28;20491;-73
2023/07/29 01:07:21;;;;;;;3.63;2.00;;;17.60;84.40;;;;;;5016506;28;20033;-73
2023/07/29 01:10:07;;;;;;;1.92;1.52;;;17.60;84.50;;;;;;5016715;28;20561;-74
2023/07/29 01:12:59;;;;;;;2.00;1.70;;;17.60;84.50;;;;;;5016777;28;20026;-74
2023/07/29 01:15:33;;;;;;;1.65;1.45;;;17.60;84.60;;;;;;5014591;28;20026;-75
2023/07/29 01:18:05;;;;;;;3.50;1.70;;;17.60;84.60;;;;;;5036211;28;20513;-74
2023/07/29 01:20:33;;;;;;;2.25;1.98;;;17.60;84.60;;;;;;5036334;28;20032;-75
2023/07/29 01:22:59;;;;;;;1.80;1.63;;;17.50;84.70;;;;;;5036250;28;20021;-75
2023/07/29 01:25:25;;;;;;;3.95;2.13;;;17.60;84.30;;;;;;5036263;28;20029;-74
2023/07/29 01:27:51;;;;;;;2.38;1.38;;;17.60;84.00;;;;;;5036304;28;20131;-74
2023/07/29 01:30:18;;;;;;;2.83;1.70;;;17.70;83.90;;;;;;5036231;28;20107;-74
2023/07/29 01:32:52;;;;;;;3.60;1.85;;;17.70;83.90;;;;;;5018289;28;20502;-74
2023/07/29 01:35:33;;;;;;;2.50;1.88;;;17.70;83.70;;;;;;5035973;28;20092;-74
2023/07/29 01:38:14;;;;;;;2.25;2.05;;;17.70;83.60;;;;;;5035857;28;20397;-74
2023/07/29 01:40:40;;;;;;;2.33;2.03;;;17.70;83.50;;;;;;5035916;28;20032;-74
2023/07/29 01:43:08;;;;;;;2.63;1.70;;;17.70;83.50;;;;;;5035835;28;20158;-74
2023/07/29 01:45:37;;;;;;;3.40;1.88;;;17.70;83.40;;;;;;5035823;28;20063;-74
2023/07/29 01:48:06;;;;;;;2.90;1.90;;;17.70;83.40;;;;;;5035930;28;20017;-74
2023/07/29 01:50:32;;;;;;;3.13;2.20;;;17.70;83.40;;;;;;5035777;28;20104;-75
2023/07/29 01:52:58;;;;;;;4.38;2.40;;;17.70;83.30;;;;;;5035750;28;20057;-74
2023/07/29 01:55:24;;;;;;;3.58;2.13;;;17.70;83.40;;;;;;5035622;28;20030;-75
2023/07/29 01:57:51;;;;;;;2.95;2.45;;;17.70;83.60;;;;;;5035662;28;20041;-74
2023/07/29 02:00:16;;;;;;;4.72;2.85;;;17.70;83.50;;;;;;5035770;28;20057;-73
2023/07/29 02:02:42;;;;;;;4.20;2.50;;;17.70;83.40;;;;;;5038421;28;20026;-73
2023/07/29 02:05:07;;;;;;;4.55;3.38;;;17.70;83.40;;;;;;5035351;28;20116;-73
2023/07/29 02:07:33;;;;;;;3.35;2.97;;;17.70;83.40;;;;;;5035488;28;20056;-74
2023/07/29 02:09:59;;;;;;;4.72;2.20;;;17.70;83.40;;;;;;5035480;28;20028;-72
2023/07/29 02:12:24;;;;;;;3.78;2.83;;;17.70;83.40;;;;;;5017577;28;20029;-72
2023/07/29 02:14:50;;;;;;;4.80;3.70;;;17.70;83.40;;;;;;5035276;28;20044;-73
2023/07/29 02:17:15;;;;;;;5.07;3.28;;;17.70;83.40;;;;;;5035234;28;20419;-72
2023/07/29 02:19:41;;;;;;;2.95;2.75;;;17.70;83.40;;;;;;5035040;28;20034;-73
2023/07/29 02:22:06;;;;;;;3.28;2.97;;;17.70;83.40;;;;;;5034982;28;20060;-73
2023/07/29 02:24:32;;;;;;;6.18;3.88;;;17.70;83.40;;;;;;5035285;28;20088;-73
2023/07/29 02:26:58;;;;;;;4.03;3.63;;;17.70;83.40;;;;;;5035155;28;20021;-72
2023/07/29 02:29:24;;;;;;;3.30;2.97;;;17.70;83.40;;;;;;5035008;28;20033;-72
2023/07/29 02:31:50;;;;;;;6.88;2.78;;;17.70;83.40;;;;;;5034983;28;20351;-73
2023/07/29 02:34:16;;;;;;;3.53;1.88;;;17.70;83.40;;;;;;5017004;28;20087;-72
2023/07/29 02:36:41;;;;;;;2.88;1.63;;;17.70;83.40;;;;;;5034799;28;20091;-72
2023/07/29 02:39:07;;;;;;;2.33;1.95;;;17.60;83.40;;;;;;5034811;28;20060;-73
2023/07/29 02:41:32;;;;;;;3.55;2.05;;;17.70;83.50;;;;;;5034720;28;20449;-72
2023/07/29 02:43:58;;;;;;;2.25;1.77;;;17.70;83.60;;;;;;5034780;28;20022;-73
2023/07/29 02:46:24;;;;;;;1.70;1.40;;;17.70;83.50;;;;;;5034655;28;20029;-73
2023/07/29 02:48:50;;;;;;;1.80;1.70;;;17.60;83.60;;;;;;5034577;28;20466;-73
2023/07/29 02:51:16;;;;;;;2.42;1.83;;;17.60;83.50;;;;;;5016888;28;20488;-72
2023/07/29 02:53:41;;;;;;;2.70;1.73;;;17.60;83.50;;;;;;5034409;28;20041;-72
2023/07/29 02:56:08;;;;;;;2.08;1.88;;;17.60;83.60;;;;;;5034535;28;20382;-73
2023/07/29 02:58:34;;;;;;;2.25;1.77;;;17.60;83.80;;;;;;5034445;28;20536;-73
2023/07/29 03:01:02;;;;;;;3.03;2.00;;;17.60;83.80;;;;;;5034424;28;20025;-73
2023/07/29 03:03:27;;;;;;;2.92;2.08;;;17.60;84.00;;;;;;5016489;28;20041;-73
2023/07/29 03:06:07;;;;;;;8.88;1.65;;;17.60;83.90;;;;;;5034255;28;20474;-73
2023/07/29 03:08:33;;;;;;;2.15;1.95;;;17.60;83.80;;;;;;5034321;28;20378;-73
2023/07/29 03:11:04;;;;;;;2.00;1.52;;;17.60;83.70;;;;;;5034076;28;20026;-73
2023/07/29 03:13:30;;;;;;;2.35;1.50;;;17.60;83.70;;;;;;5033175;28;20026;-73
2023/07/29 03:16:14;;;;;;;2.65;1.60;;;17.70;83.60;;;;;;5016323;28;20029;-73
2023/07/29 03:18:41;;;;;;;2.65;1.80;;;17.70;83.50;;;;;;5034121;28;20037;-73
2023/07/29 03:21:07;;;;;;;2.17;1.80;;;17.80;83.50;;;;;;5034019;28;20040;-73
2023/07/29 03:23:34;;;;;;;2.63;1.80;;;17.70;83.60;;;;;;5033884;28;20068;-73
2023/07/29 03:26:00;;;;;;;1.60;1.38;;;17.80;83.40;;;;;;5037585;28;20025;-72
2023/07/29 03:28:27;;;;;;;3.22;1.55;;;17.80;83.40;;;;;;5033733;28;20030;-73
2023/07/29 03:30:57;;;;;;;1.92;1.55;;;17.80;83.40;;;;;;5033742;28;20029;-73
2023/07/29 03:33:24;;;;;;;2.35;1.95;;;17.80;83.40;;;;;;5033779;28;20025;-73
2023/07/29 03:35:49;;;;;;;1.65;1.55;;;17.80;83.30;;;;;;5033697;28;20391;-73
2023/07/29 03:38:15;;;;;;;2.83;1.63;;;17.90;83.40;;;;;;5033518;28;20076;-73
2023/07/29 03:40:42;;;;;;;2.33;1.60;;;17.90;83.50;;;;;;5033577;28;20021;-73
2023/07/29 03:43:08;;;;;;;1.73;1.60;;;17.90;83.40;;;;;;5033466;28;20100;-73
2023/07/29 03:45:34;;;;;;;1.90;1.80;;;17.90;83.40;;;;;;5033285;28;20096;-73
2023/07/29 03:48:00;;;;;;;3.83;1.90;;;17.90;83.30;;;;;;5033335;28;20053;-73
2023/07/29 03:50:26;;;;;;;2.10;1.65;;;17.90;83.30;;;;;;5033334;28;20543;-74
2023/07/29 03:52:52;;;;;;;2.58;1.83;;;17.90;83.30;;;;;;5033354;28;20025;-73
2023/07/29 03:55:18;;;;;;;2.38;1.88;;;17.90;83.30;;;;;;5033293;28;20466;-74
2023/07/29 03:57:43;;;;;;;1.90;1.67;;;17.90;83.40;;;;;;5033153;28;20503;-73
2023/07/29 04:00:10;;;;;;;3.42;1.80;;;18.00;83.20;;;;;;5033298;28;20092;-72
2023/07/29 04:02:37;;;;;;;6.57;1.75;;;18.00;83.20;;;;;;5033715;28;20489;-73
2023/07/29 04:05:04;;;;;;;5.55;2.33;;;18.00;83.20;;;;;;5036563;28;20104;-73
2023/07/29 04:07:30;;;;;;;3.85;1.77;;;17.90;83.30;;;;;;5033703;28;20026;-73
2023/07/29 04:09:56;;;;;;;1.83;1.73;;;17.90;83.40;;;;;;5033337;28;20393;-73
2023/07/29 04:12:22;;;;;;;3.13;1.90;;;17.90;83.40;;;;;;5033153;28;20018;-72
2023/07/29 04:14:48;;;;;;;3.58;1.77;;;18.00;83.30;;;;;;5033076;28;20100;-73
2023/07/29 04:17:13;;;;;;;2.03;1.70;;;18.00;83.30;;;;;;5033109;28;20042;-73
2023/07/29 04:19:39;;;;;;;2.10;1.90;;;18.00;83.40;;;;;;5033097;28;20392;-74
2023/07/29 04:22:05;;;;;;;2.13;1.85;;;18.00;83.30;;;;;;5033023;28;20025;-72
2023/07/29 04:24:30;;;;;;;1.80;1.70;;;18.00;83.30;;;;;;5032632;28;20097;-73
2023/07/29 04:26:56;;;;;;;1.85;1.73;;;18.00;83.30;;;;;;5032893;28;20036;-73
2023/07/29 04:29:22;;;;;;;2.13;1.65;;;17.90;83.30;;;;;;5032998;28;20036;-73
2023/07/29 04:31:49;;;;;;;2.17;1.98;;;18.00;83.30;;;;;;5032976;28;20179;-73
2023/07/29 04:34:14;;;;;;;4.30;2.60;;;18.00;83.20;;;;;;5032797;28;20029;-73
2023/07/29 04:36:40;;;;;;;2.63;2.00;;;18.00;83.30;;;;;;5032906;28;20041;-74
2023/07/29 04:39:05;;;;;;;3.08;2.10;;;18.00;83.20;;;;;;5032975;28;20034;-73
2023/07/29 04:41:31;;;;;;;2.60;2.25;;;18.00;83.50;;;;;;5014816;28;20029;-73
2023/07/29 04:43:56;;;;;;;3.28;2.38;;;18.00;83.50;;;;;;5032889;28;20529;-73
2023/07/29 04:46:22;;;;;;;2.90;2.00;;;18.10;83.60;;;;;;5032939;28;20425;-73
2023/07/29 04:48:47;;;;;;;2.38;2.17;;;18.10;83.20;;;;;;5037822;28;20528;-72
2023/07/29 04:51:13;;;;;;;2.88;2.05;;;18.20;83.00;;;;;;5015181;28;20422;-73
2023/07/29 04:53:39;;;;;;;3.53;2.55;;;18.30;82.50;;;;;;5032776;28;20033;-74
2023/07/29 04:56:05;;;;;;;3.65;2.30;;;18.40;82.20;;;;;;5032708;28;20474;-73
2023/07/29 04:58:34;;;;;;;4.47;2.30;;;18.50;81.50;;;;;;5032118;28;20038;-76
2023/07/29 05:01:00;;;;;;;4.40;2.30;;;18.70;80.30;;;;;;5031384;28;20113;-74
2023/07/29 05:03:26;;;;;;;3.45;2.28;;;18.90;79.60;;;;;;5031350;28;20486;-74
2023/07/29 05:05:53;;;;;;;4.05;2.58;;;19.00;79.20;;;;;;5031786;28;20036;-74
2023/07/29 05:08:18;;;;;;;3.75;1.90;;;19.20;78.00;;;;;;5031456;28;20442;-75
2023/07/29 05:10:44;;;;;;;3.17;2.10;;;19.50;76.50;;;;;;5031730;28;20041;-74
2023/07/29 05:13:10;;;;;;;2.70;2.05;;;19.70;75.90;;;;;;5032558;28;20021;-74
2023/07/29 05:15:35;;;;;;;3.67;2.10;;;19.80;75.00;;;;;;5032574;28;20025;-74
2023/07/29 05:18:01;;;;;;;2.58;2.38;;;19.90;75.00;;;;;;5032068;28;20045;-74
2023/07/29 05:20:27;;;;;;;5.28;2.13;;;19.90;74.40;;;;;;5031957;28;20021;-73
2023/07/29 05:22:52;;;;;;;4.05;2.17;;;20.00;74.80;;;;;;5032111;28;20540;-73
2023/07/29 05:25:18;;;;;;;3.10;2.40;;;20.00;75.30;;;;;;5032328;28;20390;-74
2023/07/29 05:27:43;;;;;;;3.58;2.38;;;20.00;75.30;;;;;;5032186;28;20017;-73
2023/07/29 05:30:09;;;;;;;2.40;2.20;;;19.90;75.90;;;;;;5032215;28;20026;-74
2023/07/29 05:32:34;;;;;;;3.50;2.33;;;19.90;75.50;;;;;;5032332;28;20029;-74
2023/07/29 05:35:00;;;;;;;2.63;2.30;;;19.90;75.10;;;;;;5032328;28;20029;-73
2023/07/29 05:37:25;;;;;;;2.38;1.92;;;20.00;74.20;;;;;;5034504;28;20485;-74
2023/07/29 05:39:51;;;;;;;6.20;2.60;;;20.20;73.90;;;;;;5035799;28;20101;-73
2023/07/29 05:42:17;;;;;;;2.72;2.10;;;20.30;73.50;;;;;;5035899;28;20486;-74
2023/07/29 05:44:42;;;;;;;2.17;1.98;;;20.50;72.80;;;;;;5035878;28;20105;-76
2023/07/29 05:47:08;;;;;;;4.85;2.08;;;20.60;72.80;;;;;;5035711;28;20055;-73
2023/07/29 05:49:33;;;;;;;4.07;2.25;;;20.80;72.30;;;;;;5035626;28;20033;-73
2023/07/29 05:51:59;;;;;;;3.25;2.30;;;20.90;72.80;;;;;;5035607;28;20024;-72
2023/07/29 05:54:25;;;;;;;3.47;2.45;;;20.90;70.90;;;;;;5035525;28;20030;-72
2023/07/29 05:56:50;;;;;;;2.78;2.28;;;20.90;71.30;;;;;;5035538;28;20029;-73
2023/07/29 05:59:16;;;;;;;2.55;2.30;;;20.80;71.20;;;;;;5035603;28;20033;-73
2023/07/29 06:01:42;;;;;;;6.28;2.20;;;20.80;71.70;;;;;;5035085;28;20473;-73
2023/07/29 06:04:07;;;;;;;2.92;2.25;;;20.70;72.20;;;;;;5035272;28;20111;-72
2023/07/29 06:06:33;;;;;;;2.30;1.98;;;20.70;71.90;;;;;;5035223;28;20076;-72
2023/07/29 06:08:59;;;;;;;2.17;1.98;;;20.70;72.10;;;;;;5035181;28;20076;-72
2023/07/29 06:11:24;;;;;;;2.42;2.10;;;20.80;71.90;;;;;;5036358;28;20056;-73
2023/07/29 06:13:50;;;;;;;2.78;2.17;;;20.80;71.50;;;;;;5035856;28;20029;-72
2023/07/29 06:16:15;;;;;;;2.83;1.85;;;20.90;71.80;;;;;;5034104;28;20036;-73
2023/07/29 06:18:41;;;;;;;3.63;2.10;;;20.90;71.80;;;;;;5034166;28;20033;-72
2023/07/29 06:21:07;;;;;;;3.75;2.17;;;21.00;71.50;;;;;;5034217;28;20033;-72
2023/07/29 06:23:34;;;;;;;4.35;2.17;;;21.00;71.70;;;;;;5034603;28;20052;-73
2023/07/29 06:26:00;;;;;;;3.00;2.15;;;21.10;71.30;;;;;;5035008;28;20087;-72
2023/07/29 06:28:26;;;;;;;3.90;2.03;;;21.20;71.10;;;;;;5035062;28;20021;-72
2023/07/29 06:30:52;;;;;;;3.03;2.00;;;21.10;71.10;;;;;;5034960;28;20052;-73
2023/07/29 06:33:18;;;;;;;2.53;2.00;;;21.10;70.70;;;;;;5034865;28;20474;-73
2023/07/29 06:35:43;;;;;;;2.35;2.15;;;21.10;70.60;;;;;;5034837;28;20049;-73
2023/07/29 06:38:09;;;;;;;5.70;2.28;;;21.10;70.90;;;;;;5034627;28;20045;-72
2023/07/29 06:40:34;;;;;;;2.50;1.98;;;21.10;71.20;;;;;;5034478;28;20017;-73
2023/07/29 06:43:00;;;;;;;3.38;2.45;;;21.00;71.70;;;;;;5034544;28;20037;-73
2023/07/29 06:45:26;;;;;;;4.57;2.38;;;21.00;71.90;;;;;;5034546;28;20098;-73
2023/07/29 06:47:52;;;;;;;2.83;2.08;;;21.10;72.80;;;;;;5034319;28;20117;-72
2023/07/29 06:50:18;;;;;;;2.15;1.95;;;21.10;72.50;;;;;;5033930;28;20494;-72
2023/07/29 06:52:43;;;;;;;3.35;2.00;;;21.10;72.40;;;;;;5033999;28;20546;-74
2023/07/29 06:55:09;;;;;;;4.53;2.17;;;21.10;72.90;;;;;;5034155;28;20032;-72
2023/07/29 06:57:34;;;;;;;4.35;1.80;;;21.10;71.50;;;;;;5034317;28;20029;-74
2023/07/29 07:00:00;;;;;;;3.28;1.83;;;21.20;71.20;;;;;;5034299;28;20021;-73
2023/07/29 07:02:25;;;;;;;5.00;1.88;;;21.20;71.70;;;;;;5034431;28;20021;-74
2023/07/29 07:04:51;;;;;;;4.03;2.60;;;21.20;71.30;;;;;;5033931;28;20057;-73
2023/07/29 07:07:16;;;;;;;3.47;2.63;;;21.10;72.40;;;;;;5033982;28;20091;-73
2023/07/29 07:09:42;;;;;;;2.20;2.00;;;20.90;73.60;;;;;;5034143;28;20086;-73
2023/07/29 07:12:08;;;;;;;32.30;7.25;;;20.90;74.10;;;;;;5034104;28;20075;-75
2023/07/29 07:14:33;;;;;;;8.82;3.47;;;20.80;73.40;;;;;;5034042;28;20104;-74
2023/07/29 07:16:59;;;;;;;11.38;3.95;;;20.80;73.00;;;;;;5033689;28;20108;-76
2023/07/29 07:19:25;;;;;;;3.30;2.95;;;21.00;72.50;;;;;;5033735;28;20033;-75
2023/07/29 07:21:50;;;;;;;4.63;2.72;;;21.00;73.90;;;;;;5033769;28;20033;-77
2023/07/29 07:24:16;;;;;;;7.72;2.80;;;21.00;73.20;;;;;;5033682;28;20029;-77
2023/07/29 07:26:41;;;;;;;4.07;2.40;;;21.10;73.20;;;;;;5033580;28;20120;-77
2023/07/29 07:29:07;;;;;;;5.22;2.88;;;21.10;73.60;;;;;;5033464;28;20363;-77
2023/07/29 07:31:34;;;;;;;6.80;2.53;;;21.10;74.10;;;;;;5033603;28;20405;-77
2023/07/29 07:34:02;;;;;;;5.63;2.80;;;21.10;74.60;;;;;;5018012;28;20021;-76
2023/07/29 07:36:27;;;;;;;3.22;2.58;;;21.00;75.70;;;;;;5036370;28;20028;-76
2023/07/29 07:38:53;;;;;;;4.47;2.50;;;20.80;76.10;;;;;;5033531;28;20030;-77
2023/07/29 07:41:18;;;;;;;4.47;2.55;;;20.70;76.90;;;;;;5033542;28;20100;-79
2023/07/29 07:43:44;;;;;;;6.43;2.65;;;20.70;78.80;;;;;;5033503;28;20053;-78
2023/07/29 07:46:09;;;;;;;7.60;3.55;;;20.50;79.80;;;;;;5033395;28;20108;-78
2023/07/29 07:48:35;;;;;;;7.25;2.88;;;20.40;79.50;;;;;;5033463;28;20084;-79
2023/07/29 07:51:09;;;;;;;3.28;2.75;;;20.40;79.20;;;;;;5032611;28;20421;-78
2023/07/29 07:53:34;;;;;;;4.25;2.83;;;20.30;79.90;;;;;;5033424;28;20168;-78
2023/07/29 07:56:00;;;;;;;5.50;3.30;;;20.20;81.10;;;;;;5033316;28;20060;-78
2023/07/29 07:58:25;;;;;;;6.25;3.70;;;20.10;81.50;;;;;;5033036;28;20060;-77
2023/07/29 08:00:51;;;;;;;6.60;3.45;;;20.00;83.70;;;;;;5032569;28;20025;-78
2023/07/29 08:03:17;;;;;;;4.35;3.03;;;20.10;83.40;;;;;;5033060;28;20052;-77
2023/07/29 08:05:43;;;;;;;4.68;3.42;;;20.20;83.10;;;;;;5032894;28;20031;-78
2023/07/29 08:08:09;;;;;;;4.15;3.22;;;20.40;82.00;;;;;;5015174;28;20029;-77
2023/07/29 08:10:34;;;;;;;2.90;2.40;;;20.60;81.40;;;;;;5033333;28;20021;-78
2023/07/29 08:13:00;;;;;;;4.20;2.90;;;20.70;82.00;;;;;;5015319;28;20049;-78
2023/07/29 08:15:25;;;;;;;2.95;1.70;;;20.90;81.00;;;;;;5033153;28;20033;-78
2023/07/29 08:17:51;;;;;;;1.67;1.58;;;21.00;76.60;;;;;;5032578;28;20043;-77
2023/07/29 08:20:16;;;;;;;1.45;1.20;;;20.90;76.70;;;;;;5032982;28;20037;-78
2023/07/29 08:22:42;;;;;;;2.08;1.70;;;20.80;76.40;;;;;;5032783;28;20036;-80
2023/07/29 08:25:08;;;;;;;3.10;2.03;;;20.70;76.70;;;;;;5032999;28;20018;-78
2023/07/29 08:27:34;;;;;;;4.10;2.10;;;20.80;77.20;;;;;;5032984;28;20047;-77
2023/07/29 08:30:00;;;;;;;5.55;2.78;;;20.80;78.90;;;;;;5015021;28;20116;-78
2023/07/29 08:32:25;;;;;;;3.95;3.05;;;21.10;76.00;;;;;;5032687;28;20230;-77
2023/07/29 08:34:51;;;;;;;3.25;1.90;;;21.20;76.00;;;;;;5032935;28;20474;-77
2023/07/29 08:37:16;;;;;;;6.10;2.55;;;21.20;73.80;;;;;;5032589;28;20044;-77
2023/07/29 08:39:42;;;;;;;6.82;4.30;;;21.30;75.30;;;;;;5032756;28;20033;-78
2023/07/29 08:42:11;;;;;;;2.92;1.90;;;21.30;75.20;;;;;;5032169;28;20034;-79
2023/07/29 08:44:42;;;;;;;3.80;2.50;;;21.30;73.10;;;;;;5031841;28;20022;-77
2023/07/29 08:47:07;;;;;;;4.88;2.78;;;21.40;72.90;;;;;;5032628;28;20100;-77
2023/07/29 08:49:33;;;;;;;5.78;2.40;;;21.50;73.50;;;;;;5034737;28;20053;-75
2023/07/29 08:51:59;;;;;;;4.43;2.45;;;21.50;71.50;;;;;;5032897;28;20021;-77
2023/07/29 08:54:25;;;;;;;4.97;3.03;;;21.60;72.40;;;;;;5032729;28;20029;-74
2023/07/29 08:56:51;;;;;;;3.22;2.58;;;21.60;73.50;;;;;;5036217;28;20076;-73
2023/07/29 08:59:17;;;;;;;2.45;2.10;;;21.70;73.70;;;;;;5032483;28;20478;-73
2023/07/29 09:01:43;;;;;;;3.67;2.72;;;21.90;71.00;;;;;;5032480;28;20025;-74
2023/07/29 09:04:09;;;;;;;6.93;3.38;;;22.10;70.80;;;;;;5032215;28;20107;-74
2023/07/29 09:06:35;;;;;;;8.05;3.72;;;22.10;70.80;;;;;;5032403;28;20033;-74
2023/07/29 09:09:02;;;;;;;5.35;2.67;;;22.20;70.50;;;;;;5032399;28;20026;-76
2023/07/29 09:11:28;;;;;;;2.65;2.22;;;22.40;69.90;;;;;;5015312;28;20377;-74
2023/07/29 09:13:54;;;;;;;5.63;3.67;;;22.40;68.70;;;;;;5035945;28;20083;-73
2023/07/29 09:16:21;;;;;;;6.53;2.78;;;22.60;70.50;;;;;;5036010;28;20029;-73
2023/07/29 09:18:51;;;;;;;3.15;2.60;;;22.70;69.70;;;;;;5035540;28;20041;-75
2023/07/29 09:21:28;;;;;;;4.05;2.92;;;22.80;70.60;;;;;;5018014;28;20029;-75
2023/07/29 09:23:54;;;;;;;3.38;2.58;;;22.80;68.10;;;;;;5035863;28;20017;-74
2023/07/29 09:26:27;;;;;;;5.45;3.40;;;22.70;69.00;;;;;;5036061;28;20418;-75
2023/07/29 09:28:57;;;;;;;4.20;2.70;;;22.60;69.70;;;;;;5035901;28;20076;-74
2023/07/29 09:31:24;;;;;;;3.50;2.63;;;22.20;70.30;;;;;;5035894;28;20018;-75
2023/07/29 09:33:55;;;;;;;2.78;2.28;;;22.00;72.20;;;;;;5035631;28;20105;-73
2023/07/29 09:36:21;;;;;;;2.63;2.40;;;21.80;72.50;;;;;;5035626;28;20496;-74
2023/07/29 09:38:47;;;;;;;4.85;2.63;;;21.70;75.00;;;;;;5035526;28;20132;-73
2023/07/29 09:41:16;;;;;;;6.00;3.55;;;21.40;77.40;;;;;;5017762;28;20112;-75
2023/07/29 09:43:41;;;;;;;5.15;3.00;;;21.00;80.00;;;;;;5035649;28;20083;-79
2023/07/29 09:46:07;;;;;;;4.53;2.75;;;20.30;80.70;;;;;;5022430;28;20034;-72
2023/07/29 09:48:37;;;;;;;6.50;3.00;;;20.00;80.50;;;;;;5014874;28;20026;-73
2023/07/29 09:51:13;;;;;;;3.38;3.08;;;19.80;82.30;;;;;;4997611;28;20524;-73
2023/07/29 09:53:46;;;;;;;4.13;2.60;;;19.90;82.20;;;;;;5015614;28;20056;-73
2023/07/29 09:56:12;;;;;;;4.57;2.70;;;20.20;81.20;;;;;;5015325;28;20018;-73
2023/07/29 09:58:38;;;;;;;2.85;2.63;;;20.40;82.50;;;;;;5015393;28;20060;-73
2023/07/29 10:01:07;;;;;;;4.55;2.90;;;20.80;81.00;;;;;;5015600;28;20026;-81
2023/07/29 10:03:34;;;;;;;5.70;3.00;;;21.10;80.60;;;;;;5015228;28;20065;-72
2023/07/29 10:06:03;;;;;;;6.57;3.03;;;21.40;78.80;;;;;;5015286;28;20018;-72
2023/07/29 10:08:38;;;;;;;4.28;2.90;;;21.70;77.80;;;;;;5015388;28;20030;-80
2023/07/29 10:11:06;;;;;;;6.40;3.45;;;22.00;76.40;;;;;;5015382;28;20097;-72
2023/07/29 10:13:33;;;;;;;4.68;2.63;;;22.20;76.60;;;;;;4997430;28;20063;-72
2023/07/29 10:16:02;;;;;;;5.90;3.40;;;22.60;77.80;;;;;;4997703;28;20469;-72
2023/07/29 10:18:27;;;;;;;4.65;3.20;;;22.80;74.90;;;;;;5014961;28;20475;-73
2023/07/29 10:20:56;;;;;;;4.18;2.60;;;23.10;76.20;;;;;;5015088;28;20060;-73
2023/07/29 10:23:24;;;;;;;4.05;2.95;;;23.40;71.70;;;;;;5014528;28;20032;-73
2023/07/29 10:25:57;;;;;;;4.05;2.70;;;23.60;71.40;;;;;;4997016;28;20033;-73
2023/07/29 10:28:25;;;;;;;4.40;2.40;;;23.70;69.80;;;;;;5033705;28;20032;-77
2023/07/29 10:30:52;;;;;;;4.25;2.55;;;23.70;70.10;;;;;;5033161;28;20035;-71
2023/07/29 10:33:17;;;;;;;6.10;3.05;;;23.80;68.00;;;;;;5034093;28;20025;-73
2023/07/29 10:35:43;;;;;;;4.60;2.50;;;23.80;65.80;;;;;;5034461;28;20026;-73
2023/07/29 10:38:10;;;;;;;3.00;2.70;;;23.70;62.80;;;;;;5033914;28;20597;-72
2023/07/29 10:41:04;;;;;;;5.10;2.60;;;23.40;65.30;;;;;;5034546;28;20022;-74
2023/07/29 10:43:35;;;;;;;2.60;2.40;;;23.50;64.70;;;;;;5017381;28;20052;-74
2023/07/29 10:46:21;;;;;;;3.38;2.00;;;23.60;65.00;;;;;;5034235;28;20029;-73
2023/07/29 10:48:49;;;;;;;2.60;2.00;;;24.00;63.50;;;;;;5033629;28;20037;-73
2023/07/29 10:51:37;;;;;;;3.10;2.47;;;23.90;61.60;;;;;;5033854;28;20079;-73
2023/07/29 10:54:14;;;;;;;4.15;2.65;;;24.20;60.10;;;;;;5034094;28;20031;-73
2023/07/29 10:56:47;;;;;;;3.58;2.50;;;24.50;60.10;;;;;;5034331;28;20033;-74
2023/07/29 10:59:12;;;;;;;3.97;2.40;;;24.60;56.50;;;;;;5034375;28;20025;-73
2023/07/29 11:01:45;;;;;;;2.45;2.17;;;24.30;56.90;;;;;;5033617;28;20032;-72
2023/07/29 11:04:20;;;;;;;3.70;2.08;;;24.30;57.40;;;;;;5033873;28;20091;-72
2023/07/29 11:07:03;;;;;;;3.55;2.10;;;24.40;57.10;;;;;;5034039;28;20064;-72
2023/07/29 11:09:48;;;;;;;3.72;2.50;;;24.50;56.90;;;;;;5034605;28;20022;-73
2023/07/29 11:12:42;;;;;;;3.15;2.53;;;24.60;55.30;;;;;;5033573;28;20029;-74
2023/07/29 11:15:17;;;;;;;2.92;2.58;;;24.40;56.40;;;;;;5033559;28;20029;-73
2023/07/29 11:17:45;;;;;;;4.05;2.40;;;24.60;55.00;;;;;;5032500;28;20112;-73
2023/07/29 11:20:12;;;;;;;6.55;2.70;;;24.40;54.00;;;;;;5033270;28;20030;-74
2023/07/29 11:22:38;;;;;;;2.20;2.00;;;24.30;55.30;;;;;;5033197;28;20075;-73
2023/07/29 11:25:05;;;;;;;4.13;2.38;;;24.60;54.60;;;;;;5033503;28;20462;-75
2023/07/29 11:27:31;;;;;;;2.63;2.42;;;24.80;55.00;;;;;;5033521;28;20029;-74
2023/07/29 11:30:00;;;;;;;4.95;2.90;;;25.00;52.80;;;;;;5033529;28;20055;-75
2023/07/29 11:32:26;;;;;;;2.78;2.50;;;25.10;53.60;;;;;;5033592;28;20068;-73
2023/07/29 11:34:52;;;;;;;4.15;2.70;;;25.30;51.30;;;;;;5032583;28;20053;-73
2023/07/29 11:37:17;;;;;;;3.92;3.53;;;25.20;51.90;;;;;;5015745;28;20041;-73
2023/07/29 11:39:45;;;;;;;3.20;2.90;;;25.40;52.00;;;;;;5036039;28;20026;-73
2023/07/29 11:42:11;;;;;;;3.22;2.10;;;25.60;49.50;;;;;;5032944;28;20040;-73
2023/07/29 11:44:37;;;;;;;2.20;2.00;;;25.70;48.00;;;;;;5033260;28;20029;-73
2023/07/29 11:47:07;;;;;;;3.30;2.05;;;25.80;47.40;;;;;;5033047;28;20080;-73
2023/07/29 11:49:33;;;;;;;2.00;1.80;;;25.90;46.80;;;;;;5033024;28;20128;-73
2023/07/29 11:51:59;;;;;;;3.22;1.77;;;25.60;47.10;;;;;;5033282;28;20033;-73
2023/07/29 11:54:25;;;;;;;2.05;1.80;;;25.60;49.00;;;;;;5032774;28;20120;-73
2023/07/29 11:56:51;;;;;;;2.72;2.13;;;25.60;46.40;;;;;;5032753;28;20022;-74
2023/07/29 11:59:16;;;;;;;1.80;1.58;;;25.10;46.60;;;;;;5015136;28;20036;-74
2023/07/29 12:01:42;;;;;;;2.08;1.80;;;24.80;47.90;;;;;;5032507;28;20451;-72
2023/07/29 12:04:08;;;;;;;1.77;1.55;;;25.10;47.90;;;;;;5014998;28;20045;-72
2023/07/29 12:06:34;;;;;;;2.13;1.70;;;25.10;47.60;;;;;;5032972;28;20049;-73
2023/07/29 12:09:00;;;;;;;2.42;1.67;;;25.20;48.00;;;;;;5032968;28;20033;-73
2023/07/29 12:11:26;;;;;;;2.38;1.52;;;25.10;48.10;;;;;;5032889;28;20028;-72
2023/07/29 12:13:54;;;;;;;1.65;1.52;;;25.20;47.80;;;;;;5032821;28;20100;-73
2023/07/29 12:16:19;;;;;;;3.05;1.77;;;25.40;46.70;;;;;;5032596;28;20489;-73
2023/07/29 12:18:45;;;;;;;2.70;1.98;;;25.60;46.80;;;;;;5014775;28;20041;-73
2023/07/29 12:21:13;;;;;;;2.00;1.73;;;25.90;46.00;;;;;;5032773;28;20409;-73
2023/07/29 12:23:39;;;;;;;1.77;1.52;;;26.00;44.40;;;;;;5032713;28;20413;-74
2023/07/29 12:26:04;;;;;;;1.90;1.60;;;26.00;46.70;;;;;;5032634;28;20033;-73
2023/07/29 12:28:30;;;;;;;2.38;1.83;;;26.10;45.60;;;;;;5032211;28;20025;-72
2023/07/29 12:30:57;;;;;;;3.42;2.10;;;26.30;46.20;;;;;;5032793;28;20030;-72
2023/07/29 12:33:39;;;;;;;4.60;2.10;;;26.50;43.80;;;;;;5032598;28;20029;-73
2023/07/29 12:36:04;;;;;;;3.30;2.10;;;26.10;44.50;;;;;;5014867;28;20025;-73
2023/07/29 12:38:30;;;;;;;3.20;1.98;;;26.00;45.10;;;;;;5014665;28;20041;-73
2023/07/29 12:40:56;;;;;;;2.10;1.90;;;26.00;45.60;;;;;;5032644;28;20067;-72
2023/07/29 12:43:22;;;;;;;1.98;1.88;;;26.20;45.20;;;;;;5014800;28;20025;-74
2023/07/29 12:45:51;;;;;;;2.40;1.92;;;26.30;45.20;;;;;;5033931;28;20021;-73
2023/07/29 12:48:17;;;;;;;2.20;1.90;;;26.40;43.90;;;;;;5036596;28;20486;-73